sensor_id;sensor_type;location;lat;lon;timestamp;pressure;altitude;pressure_sealevel;temperature;humidity
61205;BME280;47068;55.780;37.520;2023-04-05T00:01:30;100137.22;;;9.37;70.97
61205;BME280;47068;55.780;37.520;2023-04-05T00:03:56;100145.59;;;9.42;71.22
61205;BME280;47068;55.780;37.520;2023-04-05T00:06:24;100128.03;;;9.32;71.23
61205;BME280;47068;55.780;37.520;2023-04-05T00:08:59;100134.72;;;9.36;71.03
61205;BME280;47068;55.780;37.520;2023-04-05T00:11:26;100109.59;;;9.21;70.93
61205;BME280;47068;55.780;37.520;2023-04-05T00:13:52;100137.47;;;9.44;71.14
61205;BME280;47068;55.780;37.520;2023-04-05T00:16:18;100135.81;;;9.43;71.00
61205;BME280;47068;55.780;37.520;2023-04-05T00:18:45;100107.66;;;9.23;71.12
61205;BME280;47068;55.780;37.520;2023-04-05T00:21:18;100093.34;;;8.96;71.14
61205;BME280;47068;55.780;37.520;2023-04-05T00:23:47;100135.47;;;9.19;71.80
61205;BME280;47068;55.780;37.520;2023-04-05T00:26:16;100137.13;;;9.20;71.55
61205;BME280;47068;55.780;37.520;2023-04-05T00:28:42;100119.69;;;9.17;71.70
61205;BME280;47068;55.780;37.520;2023-04-05T00:31:07;100124.16;;;9.17;71.77
61205;BME280;47068;55.780;37.520;2023-04-05T00:33:33;100129.47;;;9.17;71.62
61205;BME280;47068;55.780;37.520;2023-04-05T00:38:35;100139.25;;;9.16;71.89
61205;BME280;47068;55.780;37.520;2023-04-05T00:41:01;100101.69;;;9.01;71.85
61205;BME280;47068;55.780;37.520;2023-04-05T00:43:26;100133.66;;;9.19;71.26
61205;BME280;47068;55.780;37.520;2023-04-05T00:45:52;100135.34;;;9.11;71.67
61205;BME280;47068;55.780;37.520;2023-04-05T00:48:19;100123.94;;;8.91;71.96
61205;BME280;47068;55.780;37.520;2023-04-05T00:50:48;100102.34;;;8.76;72.01
61205;BME280;47068;55.780;37.520;2023-04-05T00:53:14;100115.03;;;8.82;71.93
61205;BME280;47068;55.780;37.520;2023-04-05T00:55:40;100144.03;;;8.93;72.06
61205;BME280;47068;55.780;37.520;2023-04-05T00:58:06;100141.13;;;8.96;72.10
61205;BME280;47068;55.780;37.520;2023-04-05T01:00:36;100140.72;;;8.91;71.84
61205;BME280;47068;55.780;37.520;2023-04-05T01:03:03;100140.16;;;8.88;72.04
61205;BME280;47068;55.780;37.520;2023-04-05T01:05:46;100112.53;;;8.71;72.05
61205;BME280;47068;55.780;37.520;2023-04-05T01:10:50;100144.75;;;8.86;71.78
61205;BME280;47068;55.780;37.520;2023-04-05T01:13:19;100096.63;;;8.52;72.04
61205;BME280;47068;55.780;37.520;2023-04-05T01:15:45;100147.13;;;8.79;72.06
61205;BME280;47068;55.780;37.520;2023-04-05T01:18:11;100142.53;;;8.72;72.46
61205;BME280;47068;55.780;37.520;2023-04-05T01:20:45;100142.69;;;8.70;72.20
61205;BME280;47068;55.780;37.520;2023-04-05T01:31:41;100145.19;;;8.52;72.66
61205;BME280;47068;55.780;37.520;2023-04-05T01:34:25;100139.63;;;8.46;72.43
61205;BME280;47068;55.780;37.520;2023-04-05T01:36:55;100134.88;;;8.40;72.62
61205;BME280;47068;55.780;37.520;2023-04-05T01:39:22;100142.00;;;8.39;72.91
61205;BME280;47068;55.780;37.520;2023-04-05T01:41:49;100149.94;;;8.39;72.91
61205;BME280;47068;55.780;37.520;2023-04-05T01:44:14;100158.72;;;8.40;72.55
61205;BME280;47068;55.780;37.520;2023-04-05T01:46:40;100141.72;;;8.33;73.09
61205;BME280;47068;55.780;37.520;2023-04-05T01:49:06;100116.00;;;8.14;72.93
61205;BME280;47068;55.780;37.520;2023-04-05T01:51:32;100127.84;;;8.19;72.74
61205;BME280;47068;55.780;37.520;2023-04-05T01:53:57;100157.63;;;8.33;72.76
61205;BME280;47068;55.780;37.520;2023-04-05T01:56:23;100122.81;;;8.07;72.84
61205;BME280;47068;55.780;37.520;2023-04-05T01:58:48;100159.41;;;8.22;72.52
61205;BME280;47068;55.780;37.520;2023-04-05T02:01:14;100154.78;;;8.24;72.54
61205;BME280;47068;55.780;37.520;2023-04-05T02:03:39;100158.69;;;8.20;72.77
61205;BME280;47068;55.780;37.520;2023-04-05T02:06:05;100122.50;;;7.90;72.46
61205;BME280;47068;55.780;37.520;2023-04-05T02:08:30;100162.00;;;8.03;72.84
61205;BME280;47068;55.780;37.520;2023-04-05T02:10:56;100168.56;;;7.99;72.53
61205;BME280;47068;55.780;37.520;2023-04-05T02:13:21;100173.25;;;7.96;72.70
61205;BME280;47068;55.780;37.520;2023-04-05T02:15:48;100177.75;;;7.95;72.80
61205;BME280;47068;55.780;37.520;2023-04-05T02:18:14;100185.00;;;7.93;73.36
61205;BME280;47068;55.780;37.520;2023-04-05T02:20:39;100195.41;;;7.85;72.67
61205;BME280;47068;55.780;37.520;2023-04-05T02:23:05;100174.91;;;7.77;73.30
61205;BME280;47068;55.780;37.520;2023-04-05T02:25:31;100190.22;;;7.74;73.59
61205;BME280;47068;55.780;37.520;2023-04-05T02:27:57;100158.81;;;7.60;73.22
61205;BME280;47068;55.780;37.520;2023-04-05T02:30:22;100161.72;;;7.57;72.98
61205;BME280;47068;55.780;37.520;2023-04-05T02:32:48;100153.06;;;7.55;73.56
61205;BME280;47068;55.780;37.520;2023-04-05T02:35:13;100175.97;;;7.65;73.10
61205;BME280;47068;55.780;37.520;2023-04-05T02:37:41;100174.00;;;7.58;72.85
61205;BME280;47068;55.780;37.520;2023-04-05T02:40:12;100188.81;;;7.70;72.79
61205;BME280;47068;55.780;37.520;2023-04-05T02:42:39;100199.41;;;7.70;73.07
61205;BME280;47068;55.780;37.520;2023-04-05T02:45:05;100163.88;;;7.42;72.85
61205;BME280;47068;55.780;37.520;2023-04-05T02:47:30;100192.13;;;7.62;72.43
61205;BME280;47068;55.780;37.520;2023-04-05T02:49:56;100201.75;;;7.63;72.12
61205;BME280;47068;55.780;37.520;2023-04-05T02:52:21;100036.50;;;6.65;72.11
61205;BME280;47068;55.780;37.520;2023-04-05T02:54:47;100198.78;;;7.57;72.27
61205;BME280;47068;55.780;37.520;2023-04-05T02:57:13;100178.06;;;7.41;71.87
61205;BME280;47068;55.780;37.520;2023-04-05T02:59:38;100202.84;;;7.61;72.36
61205;BME280;47068;55.780;37.520;2023-04-05T03:02:05;100220.25;;;7.54;72.04
61205;BME280;47068;55.780;37.520;2023-04-05T03:04:32;100213.81;;;7.46;72.38
61205;BME280;47068;55.780;37.520;2023-04-05T03:07:02;100157.28;;;7.06;71.84
61205;BME280;47068;55.780;37.520;2023-04-05T03:09:31;100209.84;;;7.41;72.35
61205;BME280;47068;55.780;37.520;2023-04-05T03:12:01;100213.94;;;7.45;71.61
61205;BME280;47068;55.780;37.520;2023-04-05T03:14:28;100226.03;;;7.47;71.63
61205;BME280;47068;55.780;37.520;2023-04-05T03:16:54;100220.91;;;7.46;71.69
61205;BME280;47068;55.780;37.520;2023-04-05T03:19:19;100191.84;;;7.35;71.35
61205;BME280;47068;55.780;37.520;2023-04-05T03:21:47;100212.38;;;7.42;71.52
61205;BME280;47068;55.780;37.520;2023-04-05T03:24:14;100170.44;;;7.17;70.90
61205;BME280;47068;55.780;37.520;2023-04-05T03:26:43;100187.91;;;7.29;70.81
61205;BME280;47068;55.780;37.520;2023-04-05T03:29:09;100225.78;;;7.50;71.27
61205;BME280;47068;55.780;37.520;2023-04-05T03:31:35;100225.78;;;7.50;70.91
61205;BME280;47068;55.780;37.520;2023-04-05T03:34:00;100172.81;;;7.20;70.42
61205;BME280;47068;55.780;37.520;2023-04-05T03:36:26;100227.66;;;7.60;70.17
61205;BME280;47068;55.780;37.520;2023-04-05T03:38:55;100229.06;;;7.64;69.91
61205;BME280;47068;55.780;37.520;2023-04-05T03:41:20;100243.47;;;7.71;70.18
61205;BME280;47068;55.780;37.520;2023-04-05T03:43:46;100244.19;;;7.73;69.67
61205;BME280;47068;55.780;37.520;2023-04-05T03:46:13;100245.38;;;7.69;69.58
61205;BME280;47068;55.780;37.520;2023-04-05T03:48:39;100237.63;;;7.77;69.51
61205;BME280;47068;55.780;37.520;2023-04-05T03:51:04;100249.59;;;8.02;68.70
61205;BME280;47068;55.780;37.520;2023-04-05T03:53:30;100197.41;;;8.02;68.44
61205;BME280;47068;55.780;37.520;2023-04-05T03:55:56;100253.13;;;8.71;67.20
61205;BME280;47068;55.780;37.520;2023-04-05T03:58:21;100205.50;;;8.69;65.95
61205;BME280;47068;55.780;37.520;2023-04-05T04:00:47;100247.25;;;9.16;64.51
61205;BME280;47068;55.780;37.520;2023-04-05T04:03:13;100253.81;;;9.31;64.20
61205;BME280;47068;55.780;37.520;2023-04-05T04:05:39;100240.78;;;9.47;64.01
61205;BME280;47068;55.780;37.520;2023-04-05T04:08:05;100226.69;;;9.37;62.89
61205;BME280;47068;55.780;37.520;2023-04-05T04:10:30;100230.88;;;9.39;62.42
61205;BME280;47068;55.780;37.520;2023-04-05T04:12:56;100265.22;;;9.51;62.96
61205;BME280;47068;55.780;37.520;2023-04-05T04:15:21;100262.91;;;9.19;62.49
61205;BME280;47068;55.780;37.520;2023-04-05T04:17:47;100257.59;;;9.09;63.48
61205;BME280;47068;55.780;37.520;2023-04-05T04:20:12;100280.94;;;9.05;62.83
61205;BME280;47068;55.780;37.520;2023-04-05T04:22:39;100238.44;;;8.86;63.34
61205;BME280;47068;55.780;37.520;2023-04-05T04:25:08;100271.56;;;9.01;63.08
61205;BME280;47068;55.780;37.520;2023-04-05T04:27:40;100262.19;;;8.88;63.82
61205;BME280;47068;55.780;37.520;2023-04-05T04:30:10;100276.88;;;8.82;63.89
61205;BME280;47068;55.780;37.520;2023-04-05T04:32:37;100279.41;;;8.84;63.78
61205;BME280;47068;55.780;37.520;2023-04-05T04:35:26;100275.44;;;8.78;64.26
61205;BME280;47068;55.780;37.520;2023-04-05T04:37:55;100275.06;;;8.83;64.30
61205;BME280;47068;55.780;37.520;2023-04-05T04:40:27;100276.72;;;8.93;64.27
61205;BME280;47068;55.780;37.520;2023-04-05T04:42:54;100275.75;;;9.04;63.77
61205;BME280;47068;55.780;37.520;2023-04-05T04:45:22;100287.50;;;9.11;63.04
61205;BME280;47068;55.780;37.520;2023-04-05T04:47:48;100280.94;;;9.25;63.01
61205;BME280;47068;55.780;37.520;2023-04-05T04:50:15;100278.53;;;9.22;63.00
61205;BME280;47068;55.780;37.520;2023-04-05T04:52:41;100280.94;;;9.25;62.22
61205;BME280;47068;55.780;37.520;2023-04-05T04:55:10;100285.38;;;9.34;62.17
61205;BME280;47068;55.780;37.520;2023-04-05T04:57:42;100292.09;;;9.28;62.26
61205;BME280;47068;55.780;37.520;2023-04-05T05:00:10;100296.00;;;9.34;62.16
61205;BME280;47068;55.780;37.520;2023-04-05T05:02:38;100288.16;;;9.52;61.99
61205;BME280;47068;55.780;37.520;2023-04-05T05:05:08;100292.56;;;9.80;61.75
61205;BME280;47068;55.780;37.520;2023-04-05T05:07:35;100282.44;;;9.93;60.57
61205;BME280;47068;55.780;37.520;2023-04-05T05:10:01;100298.03;;;10.15;60.21
61205;BME280;47068;55.780;37.520;2023-04-05T05:12:26;100297.63;;;10.10;59.84
61205;BME280;47068;55.780;37.520;2023-04-05T05:14:52;100301.25;;;10.19;59.71
61205;BME280;47068;55.780;37.520;2023-04-05T05:17:17;100308.75;;;10.33;59.83
61205;BME280;47068;55.780;37.520;2023-04-05T05:19:44;100290.94;;;10.43;59.05
61205;BME280;47068;55.780;37.520;2023-04-05T05:22:12;100306.88;;;10.71;58.31
61205;BME280;47068;55.780;37.520;2023-04-05T05:24:38;100305.34;;;10.86;57.72
61205;BME280;47068;55.780;37.520;2023-04-05T05:27:03;100295.41;;;10.88;57.06
61205;BME280;47068;55.780;37.520;2023-04-05T05:29:29;100307.91;;;11.05;57.63
61205;BME280;47068;55.780;37.520;2023-04-05T05:31:54;100277.22;;;11.01;56.64
61205;BME280;47068;55.780;37.520;2023-04-05T05:34:20;100310.59;;;11.49;56.19
61205;BME280;47068;55.780;37.520;2023-04-05T05:36:46;100305.59;;;11.71;55.47
61205;BME280;47068;55.780;37.520;2023-04-05T05:39:11;100266.50;;;12.06;53.38
61205;BME280;47068;55.780;37.520;2023-04-05T05:41:37;100307.91;;;13.51;52.43
61205;BME280;47068;55.780;37.520;2023-04-05T05:44:02;100297.53;;;14.35;49.76
61205;BME280;47068;55.780;37.520;2023-04-05T05:46:28;100309.25;;;15.04;47.15
61205;BME280;47068;55.780;37.520;2023-04-05T05:48:53;100273.31;;;15.73;45.15
61205;BME280;47068;55.780;37.520;2023-04-05T05:51:19;100301.66;;;16.64;44.19
61205;BME280;47068;55.780;37.520;2023-04-05T05:53:46;100282.50;;;17.10;41.87
61205;BME280;47068;55.780;37.520;2023-04-05T05:56:12;100271.69;;;17.46;41.10
61205;BME280;47068;55.780;37.520;2023-04-05T05:58:38;100294.38;;;17.86;39.13
61205;BME280;47068;55.780;37.520;2023-04-05T06:01:05;100315.91;;;17.86;39.32
61205;BME280;47068;55.780;37.520;2023-04-05T06:03:31;100265.22;;;18.30;38.58
61205;BME280;47068;55.780;37.520;2023-04-05T06:05:58;100303.50;;;19.27;36.36
61205;BME280;47068;55.780;37.520;2023-04-05T06:08:25;100306.22;;;19.93;35.36
61205;BME280;47068;55.780;37.520;2023-04-05T06:10:54;100310.75;;;20.32;34.56
61205;BME280;47068;55.780;37.520;2023-04-05T06:13:19;100302.00;;;20.43;33.88
61205;BME280;47068;55.780;37.520;2023-04-05T06:15:48;100309.38;;;20.74;34.17
61205;BME280;47068;55.780;37.520;2023-04-05T06:18:13;100304.25;;;20.98;32.95
61205;BME280;47068;55.780;37.520;2023-04-05T06:20:39;100302.16;;;21.00;33.05
61205;BME280;47068;55.780;37.520;2023-04-05T06:23:07;100295.59;;;20.18;33.59
61205;BME280;47068;55.780;37.520;2023-04-05T06:25:35;100307.50;;;19.58;34.88
61205;BME280;47068;55.780;37.520;2023-04-05T06:28:02;100312.59;;;19.00;35.70
61205;BME280;47068;55.780;37.520;2023-04-05T06:30:28;100313.03;;;19.30;36.09
61205;BME280;47068;55.780;37.520;2023-04-05T06:32:53;100305.84;;;19.83;34.84
61205;BME280;47068;55.780;37.520;2023-04-05T06:35:19;100319.94;;;20.12;34.53
61205;BME280;47068;55.780;37.520;2023-04-05T06:37:45;100269.19;;;20.78;32.70
61205;BME280;47068;55.780;37.520;2023-04-05T06:40:11;100318.41;;;21.00;32.43
61205;BME280;47068;55.780;37.520;2023-04-05T06:42:37;100321.56;;;20.32;33.28
61205;BME280;47068;55.780;37.520;2023-04-05T06:45:02;100322.44;;;19.93;33.89
61205;BME280;47068;55.780;37.520;2023-04-05T06:47:31;100308.75;;;19.69;34.90
61205;BME280;47068;55.780;37.520;2023-04-05T06:49:57;100301.84;;;19.20;34.86
61205;BME280;47068;55.780;37.520;2023-04-05T06:52:23;100322.25;;;18.81;36.15
61205;BME280;47068;55.780;37.520;2023-04-05T06:54:48;100280.19;;;18.05;37.08
61205;BME280;47068;55.780;37.520;2023-04-05T06:57:13;100318.25;;;18.23;37.34
61205;BME280;47068;55.780;37.520;2023-04-05T06:59:39;100296.91;;;18.63;37.22
61205;BME280;47068;55.780;37.520;2023-04-05T07:02:05;100305.09;;;19.02;35.93
61205;BME280;47068;55.780;37.520;2023-04-05T07:04:30;100322.16;;;19.22;35.59
61205;BME280;47068;55.780;37.520;2023-04-05T07:07:02;100320.75;;;19.40;35.28
61205;BME280;47068;55.780;37.520;2023-04-05T07:09:31;100318.72;;;19.75;35.70
61205;BME280;47068;55.780;37.520;2023-04-05T07:12:02;100319.56;;;19.75;35.55
61205;BME280;47068;55.780;37.520;2023-04-05T07:14:34;100314.31;;;19.34;35.14
61205;BME280;47068;55.780;37.520;2023-04-05T07:17:00;100328.97;;;19.05;35.92
61205;BME280;47068;55.780;37.520;2023-04-05T07:19:26;100317.97;;;18.53;36.57
61205;BME280;47068;55.780;37.520;2023-04-05T07:21:52;100325.03;;;18.19;37.12
61205;BME280;47068;55.780;37.520;2023-04-05T07:24:17;100319.34;;;18.01;38.37
61205;BME280;47068;55.780;37.520;2023-04-05T07:26:43;100306.31;;;18.04;37.47
61205;BME280;47068;55.780;37.520;2023-04-05T07:29:10;100316.50;;;18.50;37.20
61205;BME280;47068;55.780;37.520;2023-04-05T07:31:38;100330.88;;;19.18;36.20
61205;BME280;47068;55.780;37.520;2023-04-05T07:34:04;100329.00;;;19.18;36.24
61205;BME280;47068;55.780;37.520;2023-04-05T07:36:29;100333.53;;;18.98;35.66
61205;BME280;47068;55.780;37.520;2023-04-05T07:38:58;100324.53;;;18.78;35.76
61205;BME280;47068;55.780;37.520;2023-04-05T07:41:24;100334.31;;;18.10;37.01
61205;BME280;47068;55.780;37.520;2023-04-05T07:43:52;100300.22;;;19.65;34.19
61205;BME280;47068;55.780;37.520;2023-04-05T07:46:18;100311.38;;;21.55;31.64
61205;BME280;47068;55.780;37.520;2023-04-05T07:48:46;100340.91;;;21.63;32.78
61205;BME280;47068;55.780;37.520;2023-04-05T07:51:15;100336.44;;;23.39;28.94
61205;BME280;47068;55.780;37.520;2023-04-05T07:53:41;100322.00;;;23.80;28.25
61205;BME280;47068;55.780;37.520;2023-04-05T07:56:08;100316.00;;;22.59;29.39
61205;BME280;47068;55.780;37.520;2023-04-05T07:58:34;100329.13;;;22.80;29.83
61205;BME280;47068;55.780;37.520;2023-04-05T08:01:02;100329.38;;;21.05;32.14
61205;BME280;47068;55.780;37.520;2023-04-05T08:03:28;100322.88;;;19.77;33.75
61205;BME280;47068;55.780;37.520;2023-04-05T08:05:54;100332.75;;;19.17;35.05
61205;BME280;47068;55.780;37.520;2023-04-05T08:08:21;100320.44;;;17.85;37.02
61205;BME280;47068;55.780;37.520;2023-04-05T08:10:47;100306.28;;;17.49;37.88
61205;BME280;47068;55.780;37.520;2023-04-05T08:13:12;100338.75;;;17.47;38.46
61205;BME280;47068;55.780;37.520;2023-04-05T08:15:39;100334.44;;;17.31;38.82
61205;BME280;47068;55.780;37.520;2023-04-05T08:18:05;100343.22;;;17.19;39.64
61205;BME280;47068;55.780;37.520;2023-04-05T08:20:33;100336.44;;;17.23;39.67
61205;BME280;47068;55.780;37.520;2023-04-05T08:23:05;100330.97;;;16.80;39.94
61205;BME280;47068;55.780;37.520;2023-04-05T08:25:32;100296.78;;;16.24;40.78
61205;BME280;47068;55.780;37.520;2023-04-05T08:27:57;100336.22;;;16.38;41.40
61205;BME280;47068;55.780;37.520;2023-04-05T08:30:22;100332.59;;;16.31;41.96
61205;BME280;47068;55.780;37.520;2023-04-05T08:32:48;100345.56;;;16.42;42.01
61205;BME280;47068;55.780;37.520;2023-04-05T08:35:14;100321.97;;;15.56;43.31
61205;BME280;47068;55.780;37.520;2023-04-05T08:37:43;100349.63;;;15.25;44.23
61205;BME280;47068;55.780;37.520;2023-04-05T08:40:09;100349.44;;;15.50;44.19
61205;BME280;47068;55.780;37.520;2023-04-05T08:42:41;100353.31;;;15.70;43.84
61205;BME280;47068;55.780;37.520;2023-04-05T08:45:13;100355.22;;;15.84;43.73
61205;BME280;47068;55.780;37.520;2023-04-05T08:47:41;100355.94;;;15.10;45.08
61205;BME280;47068;55.780;37.520;2023-04-05T08:50:09;100354.75;;;14.42;46.22
61205;BME280;47068;55.780;37.520;2023-04-05T08:52:37;100351.47;;;14.00;48.67
61205;BME280;47068;55.780;37.520;2023-04-05T08:55:06;100349.97;;;14.05;47.42
61205;BME280;47068;55.780;37.520;2023-04-05T08:57:31;100340.81;;;13.67;48.12
61205;BME280;47068;55.780;37.520;2023-04-05T09:00:01;100340.31;;;13.72;48.28
61205;BME280;47068;55.780;37.520;2023-04-05T09:02:28;100319.28;;;13.45;49.18
61205;BME280;47068;55.780;37.520;2023-04-05T09:04:54;100317.38;;;13.94;49.15
61205;BME280;47068;55.780;37.520;2023-04-05T09:07:20;100331.34;;;14.44;48.35
61205;BME280;47068;55.780;37.520;2023-04-05T09:09:48;100306.31;;;14.60;47.06
61205;BME280;47068;55.780;37.520;2023-04-05T09:12:20;100312.59;;;15.06;46.14
61205;BME280;47068;55.780;37.520;2023-04-05T09:14:47;100337.75;;;15.43;45.50
61205;BME280;47068;55.780;37.520;2023-04-05T09:17:16;100359.47;;;15.33;45.89
61205;BME280;47068;55.780;37.520;2023-04-05T09:19:42;100352.44;;;15.01;46.83
61205;BME280;47068;55.780;37.520;2023-04-05T09:22:09;100359.03;;;15.44;45.40
61205;BME280;47068;55.780;37.520;2023-04-05T09:24:45;100360.97;;;15.81;44.98
61205;BME280;47068;55.780;37.520;2023-04-05T09:27:15;100331.81;;;15.93;44.29
61205;BME280;47068;55.780;37.520;2023-04-05T09:29:45;100345.94;;;16.24;45.40
61205;BME280;47068;55.780;37.520;2023-04-05T09:32:12;100345.03;;;16.32;45.44
61205;BME280;47068;55.780;37.520;2023-04-05T09:34:39;100343.38;;;15.33;44.86
61205;BME280;47068;55.780;37.520;2023-04-05T09:39:37;100328.59;;;13.89;48.75
61205;BME280;47068;55.780;37.520;2023-04-05T09:42:08;100350.84;;;13.73;49.47
61205;BME280;47068;55.780;37.520;2023-04-05T09:44:59;100347.97;;;14.07;49.62
61205;BME280;47068;55.780;37.520;2023-04-05T09:47:30;100341.09;;;14.13;48.88
61205;BME280;47068;55.780;37.520;2023-04-05T09:50:16;100315.09;;;13.66;50.65
61205;BME280;47068;55.780;37.520;2023-04-05T09:52:43;100327.09;;;14.58;49.65
61205;BME280;47068;55.780;37.520;2023-04-05T09:55:09;100347.84;;;15.41;47.73
61205;BME280;47068;55.780;37.520;2023-04-05T09:57:39;100350.38;;;16.02;46.56
61205;BME280;47068;55.780;37.520;2023-04-05T10:00:06;100342.97;;;16.34;44.65
61205;BME280;47068;55.780;37.520;2023-04-05T10:02:41;100313.31;;;15.98;44.67
61205;BME280;47068;55.780;37.520;2023-04-05T10:05:08;100319.25;;;16.08;45.77
61205;BME280;47068;55.780;37.520;2023-04-05T10:07:41;100337.69;;;16.55;43.78
61205;BME280;47068;55.780;37.520;2023-04-05T10:10:08;100308.97;;;16.55;43.87
61205;BME280;47068;55.780;37.520;2023-04-05T10:12:39;100335.25;;;16.75;43.25
61205;BME280;47068;55.780;37.520;2023-04-05T10:15:09;100334.75;;;16.65;43.91
61205;BME280;47068;55.780;37.520;2023-04-05T10:17:52;100348.78;;;16.67;43.56
61205;BME280;47068;55.780;37.520;2023-04-05T10:20:24;100338.31;;;16.86;43.84
61205;BME280;47068;55.780;37.520;2023-04-05T10:25:26;100332.38;;;16.91;43.02
61205;BME280;47068;55.780;37.520;2023-04-05T10:28:03;100341.97;;;16.64;42.79
61205;BME280;47068;55.780;37.520;2023-04-05T10:30:41;100340.66;;;16.60;44.41
61205;BME280;47068;55.780;37.520;2023-04-05T10:38:28;100342.13;;;16.48;44.28
61205;BME280;47068;55.780;37.520;2023-04-05T10:40:58;100326.09;;;16.40;43.48
61205;BME280;47068;55.780;37.520;2023-04-05T10:43:31;100329.16;;;16.07;44.72
61205;BME280;47068;55.780;37.520;2023-04-05T10:46:00;100340.28;;;16.34;43.90
61205;BME280;47068;55.780;37.520;2023-04-05T10:50:55;100335.28;;;16.45;43.74
61205;BME280;47068;55.780;37.520;2023-04-05T10:53:22;100316.94;;;16.49;43.65
61205;BME280;47068;55.780;37.520;2023-04-05T10:55:50;100332.31;;;15.59;45.24
61205;BME280;47068;55.780;37.520;2023-04-05T10:58:16;100294.53;;;15.23;45.66
61205;BME280;47068;55.780;37.520;2023-04-05T11:00:43;100339.88;;;14.79;46.60
61205;BME280;47068;55.780;37.520;2023-04-05T11:03:09;100329.47;;;14.84;46.94
61205;BME280;47068;55.780;37.520;2023-04-05T11:05:35;100329.19;;;15.24;46.30
61205;BME280;47068;55.780;37.520;2023-04-05T11:08:08;100331.50;;;15.50;45.45
61205;BME280;47068;55.780;37.520;2023-04-05T11:10:37;100322.97;;;15.01;46.93
61205;BME280;47068;55.780;37.520;2023-04-05T11:13:05;100330.19;;;15.54;46.30
61205;BME280;47068;55.780;37.520;2023-04-05T11:15:32;100321.13;;;15.70;45.98
61205;BME280;47068;55.780;37.520;2023-04-05T11:23:23;100331.09;;;15.38;45.65
61205;BME280;47068;55.780;37.520;2023-04-05T11:26:04;100333.97;;;15.37;46.11
61205;BME280;47068;55.780;37.520;2023-04-05T11:28:35;100328.13;;;15.33;45.86
61205;BME280;47068;55.780;37.520;2023-04-05T11:31:19;100329.91;;;15.18;46.43
61205;BME280;47068;55.780;37.520;2023-04-05T11:36:12;100323.66;;;15.26;46.03
61205;BME280;47068;55.780;37.520;2023-04-05T11:38:42;100323.84;;;14.24;48.35
61205;BME280;47068;55.780;37.520;2023-04-05T11:41:13;100320.69;;;14.04;48.85
61205;BME280;47068;55.780;37.520;2023-04-05T11:43:47;100315.97;;;14.22;48.66
61205;BME280;47068;55.780;37.520;2023-04-05T11:46:16;100325.25;;;14.58;48.27
61205;BME280;47068;55.780;37.520;2023-04-05T11:48:48;100315.75;;;14.40;48.55
61205;BME280;47068;55.780;37.520;2023-04-05T11:51:15;100293.41;;;14.16;47.89
61205;BME280;47068;55.780;37.520;2023-04-05T11:53:45;100312.63;;;14.20;48.32
61205;BME280;47068;55.780;37.520;2023-04-05T11:56:11;100318.66;;;14.22;48.58
61205;BME280;47068;55.780;37.520;2023-04-05T11:58:40;100313.31;;;14.22;48.49
61205;BME280;47068;55.780;37.520;2023-04-05T12:01:06;100307.25;;;14.28;48.91
61205;BME280;47068;55.780;37.520;2023-04-05T12:03:33;100282.72;;;14.55;48.34
61205;BME280;47068;55.780;37.520;2023-04-05T12:06:00;100295.31;;;14.86;47.59
61205;BME280;47068;55.780;37.520;2023-04-05T12:08:43;100288.13;;;15.01;46.97
61205;BME280;47068;55.780;37.520;2023-04-05T12:11:15;100301.16;;;15.12;47.08
61205;BME280;47068;55.780;37.520;2023-04-05T12:13:41;100279.97;;;14.94;46.76
61205;BME280;47068;55.780;37.520;2023-04-05T12:16:07;100300.44;;;15.18;46.71
61205;BME280;47068;55.780;37.520;2023-04-05T12:18:37;100278.31;;;15.16;46.72
61205;BME280;47068;55.780;37.520;2023-04-05T12:21:05;100286.03;;;15.19;46.40
61205;BME280;47068;55.780;37.520;2023-04-05T12:23:31;100305.13;;;15.16;46.51
61205;BME280;47068;55.780;37.520;2023-04-05T12:25:57;100288.97;;;15.02;46.92
61205;BME280;47068;55.780;37.520;2023-04-05T12:28:23;100292.50;;;15.02;46.70
61205;BME280;47068;55.780;37.520;2023-04-05T12:30:54;100295.28;;;15.09;46.67
61205;BME280;47068;55.780;37.520;2023-04-05T12:33:32;100287.91;;;15.11;46.87
61205;BME280;47068;55.780;37.520;2023-04-05T12:36:03;100300.53;;;15.02;46.90
61205;BME280;47068;55.780;37.520;2023-04-05T12:38:29;100268.50;;;14.86;46.84
61205;BME280;47068;55.780;37.520;2023-04-05T12:41:04;100291.41;;;14.88;46.63
61205;BME280;47068;55.780;37.520;2023-04-05T12:43:40;100296.53;;;14.75;47.30
61205;BME280;47068;55.780;37.520;2023-04-05T12:46:10;100298.22;;;14.68;47.33
61205;BME280;47068;55.780;37.520;2023-04-05T12:48:37;100303.72;;;14.75;47.20
61205;BME280;47068;55.780;37.520;2023-04-05T12:51:13;100301.06;;;14.67;47.72
61205;BME280;47068;55.780;37.520;2023-04-05T12:53:46;100303.38;;;14.78;46.89
61205;BME280;47068;55.780;37.520;2023-04-05T12:56:12;100301.00;;;14.83;46.74
61205;BME280;47068;55.780;37.520;2023-04-05T12:58:39;100297.34;;;14.76;47.38
61205;BME280;47068;55.780;37.520;2023-04-05T13:01:05;100273.28;;;14.68;47.17
61205;BME280;47068;55.780;37.520;2023-04-05T13:03:31;100288.97;;;14.79;47.28
61205;BME280;47068;55.780;37.520;2023-04-05T13:05:56;100302.84;;;14.82;47.08
61205;BME280;47068;55.780;37.520;2023-04-05T13:08:22;100289.69;;;14.73;46.99
61205;BME280;47068;55.780;37.520;2023-04-05T13:10:49;100298.34;;;14.75;46.79
61205;BME280;47068;55.780;37.520;2023-04-05T13:13:16;100289.69;;;14.73;47.11
61205;BME280;47068;55.780;37.520;2023-04-05T13:15:42;100295.38;;;14.70;46.91
61205;BME280;47068;55.780;37.520;2023-04-05T13:18:07;100276.91;;;14.52;47.49
61205;BME280;47068;55.780;37.520;2023-04-05T13:20:34;100295.59;;;14.60;47.28